Time;durP1;ratioP1;P1;durP2;ratioP2;P2;SDS_P1;SDS_P2;PMS_P1;PMS_P2;Temp;Humidity;BMP_temperature;BMP_pressure;BME280_temperature;BME280_humidity;BME280_pressure;Samples;Min_cycle;Max_cycle;Signal;HPM_P1;HPM_P2
2021/05/01 00:00:55;;;;;;;25.42;17.15;;;7.40;99.90;;;;;;4146978;28;20129;-79
2021/05/01 00:02:56;;;;;;;24.75;17.75;;;7.30;99.90;;;;;;4129066;28;20051;-79
2021/05/01 00:04:56;;;;;;;27.20;19.70;;;7.30;99.90;;;;;;4144657;28;20022;-79
2021/05/01 00:06:57;;;;;;;29.70;19.70;;;7.30;99.90;;;;;;4128843;28;20065;-78
2021/05/01 00:08:58;;;;;;;24.13;18.80;;;7.30;99.90;;;;;;4144454;28;20517;-78
2021/05/01 00:11:02;;;;;;;22.77;18.67;;;7.30;99.90;;;;;;4161218;28;20056;-78
2021/05/01 00:13:03;;;;;;;31.15;19.75;;;7.20;99.90;;;;;;4160727;28;20128;-78
2021/05/01 00:15:04;;;;;;;27.58;19.17;;;7.00;99.90;;;;;;4126464;28;20433;-78
2021/05/01 00:17:05;;;;;;;31.20;19.92;;;7.10;99.90;;;;;;4136389;28;20200;-79
2021/05/01 00:19:06;;;;;;;34.92;21.35;;;7.00;99.90;;;;;;4136055;28;20517;-79
2021/05/01 00:21:08;;;;;;;30.75;19.10;;;7.00;99.90;;;;;;4144382;28;20096;-79
2021/05/01 00:23:09;;;;;;;27.27;20.13;;;7.10;99.90;;;;;;4144411;28;20026;-79
2021/05/01 00:25:10;;;;;;;25.70;18.83;;;7.00;99.90;;;;;;4146028;28;20100;-80
2021/05/01 00:27:11;;;;;;;29.40;19.20;;;6.90;99.90;;;;;;4134056;28;20577;-79
2021/05/01 00:29:12;;;;;;;29.13;18.02;;;6.90;99.90;;;;;;4176669;28;20033;-79
2021/05/01 00:31:14;;;;;;;24.95;17.85;;;7.00;99.90;;;;;;4145062;28;20034;-80
2021/05/01 00:33:15;;;;;;;27.30;17.70;;;7.00;99.90;;;;;;4178021;28;20041;-80
2021/05/01 00:35:16;;;;;;;26.52;19.83;;;6.90;99.90;;;;;;4145406;28;20061;-80
2021/05/01 00:37:17;;;;;;;25.08;18.27;;;6.90;99.90;;;;;;4145314;28;20632;-79
2021/05/01 00:39:18;;;;;;;25.73;20.08;;;6.80;99.90;;;;;;4145380;28;20041;-79
2021/05/01 00:41:18;;;;;;;25.15;18.13;;;6.90;99.90;;;;;;4145066;28;20045;-79
2021/05/01 00:43:19;;;;;;;21.25;16.63;;;6.80;99.90;;;;;;4161656;28;20041;-79
2021/05/01 00:45:20;;;;;;;26.15;17.50;;;6.90;99.90;;;;;;4128970;28;20042;-79
2021/05/01 00:47:21;;;;;;;23.98;17.13;;;6.90;99.90;;;;;;4145431;28;20042;-79
2021/05/01 00:49:22;;;;;;;22.48;17.73;;;6.80;99.90;;;;;;4146870;28;20432;-78
2021/05/01 00:51:23;;;;;;;28.73;18.50;;;6.70;99.90;;;;;;4145535;28;20042;-79
2021/05/01 00:53:24;;;;;;;23.77;16.45;;;6.70;99.90;;;;;;4145452;28;20551;-79
2021/05/01 00:55:26;;;;;;;27.15;18.30;;;6.70;99.90;;;;;;4161899;28;20196;-79
2021/05/01 00:57:27;;;;;;;28.55;17.17;;;6.70;99.90;;;;;;4145297;28;20061;-80
2021/05/01 00:59:28;;;;;;;27.30;17.15;;;6.70;99.90;;;;;;4144818;28;20477;-80
2021/05/01 01:01:30;;;;;;;23.80;15.98;;;6.70;99.90;;;;;;4146602;28;20030;-79
2021/05/01 01:03:32;;;;;;;25.85;14.98;;;6.70;99.90;;;;;;4145131;28;20034;-80
2021/05/01 01:05:34;;;;;;;30.85;17.80;;;6.70;99.90;;;;;;4145339;28;20038;-80
2021/05/01 01:07:35;;;;;;;22.20;16.40;;;6.70;99.90;;;;;;4146038;28;20030;-79
2021/05/01 01:09:35;;;;;;;24.13;17.70;;;6.60;99.90;;;;;;4180572;28;20045;-79
2021/05/01 01:11:37;;;;;;;34.00;17.58;;;6.60;99.90;;;;;;4152775;28;20104;-79
2021/05/01 01:13:38;;;;;;;28.05;17.17;;;6.60;99.90;;;;;;4145533;28;20041;-79
2021/05/01 01:15:39;;;;;;;24.23;16.60;;;6.60;99.90;;;;;;4147998;28;20030;-80
2021/05/01 01:17:40;;;;;;;23.42;18.15;;;6.60;99.90;;;;;;4148190;28;20037;-80
2021/05/01 01:19:41;;;;;;;29.02;17.95;;;6.60;99.90;;;;;;4147677;28;20072;-80
2021/05/01 01:21:42;;;;;;;27.92;16.50;;;6.60;99.90;;;;;;4149023;28;20026;-79
2021/05/01 01:23:43;;;;;;;21.98;16.08;;;6.70;99.90;;;;;;4147932;28;20481;-80
2021/05/01 01:25:44;;;;;;;26.52;15.57;;;6.70;99.90;;;;;;4143420;28;20030;-80
2021/05/01 01:27:46;;;;;;;20.13;14.88;;;6.80;99.90;;;;;;4163711;28;20049;-79
2021/05/01 01:29:48;;;;;;;25.63;17.33;;;6.80;99.90;;;;;;4140466;28;20043;-80
2021/05/01 01:31:49;;;;;;;24.92;15.77;;;6.80;99.90;;;;;;4179393;28;20468;-79
2021/05/01 01:33:50;;;;;;;20.90;14.45;;;6.80;99.90;;;;;;4147753;28;20061;-79
2021/05/01 01:35:51;;;;;;;23.95;17.85;;;6.80;99.90;;;;;;4148778;28;20561;-79
2021/05/01 01:37:53;;;;;;;24.77;15.55;;;6.80;99.90;;;;;;4149184;28;20045;-78
2021/05/01 01:39:54;;;;;;;21.80;15.10;;;6.80;99.90;;;;;;4163038;28;20026;-80
2021/05/01 01:41:54;;;;;;;20.50;15.60;;;6.80;99.90;;;;;;4154355;28;20443;-79
2021/05/01 01:43:55;;;;;;;24.08;16.05;;;6.80;99.90;;;;;;4136090;28;20030;-80
2021/05/01 01:45:56;;;;;;;24.77;14.82;;;6.80;99.90;;;;;;4163954;28;20465;-80
2021/05/01 01:47:58;;;;;;;25.25;16.27;;;6.90;99.90;;;;;;4147098;28;20492;-80
2021/05/01 01:49:59;;;;;;;22.80;16.77;;;6.90;99.90;;;;;;4147558;28;20037;-80
2021/05/01 01:51:59;;;;;;;27.42;16.95;;;6.80;99.90;;;;;;4180284;28;20468;-80
2021/05/01 01:54:01;;;;;;;26.35;17.70;;;6.70;99.90;;;;;;4147192;28;20026;-80
2021/05/01 01:56:02;;;;;;;21.45;16.40;;;6.60;99.90;;;;;;4130937;28;20394;-78
2021/05/01 01:58:04;;;;;;;31.38;17.17;;;6.60;99.90;;;;;;4131188;28;20126;-79
2021/05/01 02:00:40;;;;;;;30.30;16.63;;;6.60;99.90;;;;;;4131123;28;20117;-80
2021/05/01 02:02:41;;;;;;;23.00;16.05;;;6.60;99.90;;;;;;4162476;28;20022;-79
2021/05/01 02:04:42;;;;;;;24.92;16.10;;;6.50;99.90;;;;;;4147004;28;20030;-79
2021/05/01 02:06:44;;;;;;;24.58;15.55;;;6.40;99.90;;;;;;4147023;28;20038;-79
2021/05/01 02:08:44;;;;;;;27.13;15.73;;;6.50;99.90;;;;;;4152176;28;20038;-79
2021/05/01 02:10:45;;;;;;;25.75;17.10;;;6.40;99.90;;;;;;4139471;28;20036;-79
2021/05/01 02:12:47;;;;;;;28.70;18.67;;;6.30;99.90;;;;;;4147141;28;20044;-80
2021/05/01 02:14:48;;;;;;;29.55;18.52;;;6.20;99.90;;;;;;4147085;28;20034;-79
2021/05/01 02:16:49;;;;;;;28.85;19.08;;;6.00;99.90;;;;;;4147969;28;20485;-80
2021/05/01 02:18:50;;;;;;;22.38;17.48;;;6.00;99.90;;;;;;4135507;28;20030;-80
2021/05/01 02:20:51;;;;;;;26.85;18.67;;;6.00;99.90;;;;;;4146526;28;20038;-80
2021/05/01 02:22:52;;;;;;;36.08;19.65;;;6.00;99.90;;;;;;4147026;28;20508;-80
2021/05/01 02:24:53;;;;;;;30.73;20.40;;;5.90;99.90;;;;;;4146872;28;20724;-80
2021/05/01 02:26:54;;;;;;;36.90;20.92;;;5.80;99.90;;;;;;4146776;28;20104;-80
2021/05/01 02:28:55;;;;;;;36.22;21.70;;;5.60;99.90;;;;;;4133949;28;20034;-79
2021/05/01 02:30:56;;;;;;;34.67;21.85;;;5.50;99.90;;;;;;4147949;28;20493;-79
2021/05/01 02:32:58;;;;;;;45.17;23.92;;;5.50;99.90;;;;;;4146654;28;20176;-79
2021/05/01 02:34:59;;;;;;;40.88;22.55;;;5.40;99.90;;;;;;4130646;28;20457;-79
2021/05/01 02:37:00;;;;;;;38.67;23.20;;;5.30;99.90;;;;;;4146887;28;20029;-79
2021/05/01 02:39:03;;;;;;;34.33;23.60;;;5.10;99.90;;;;;;4146055;28;20474;-77
2021/05/01 02:41:04;;;;;;;40.65;24.25;;;5.10;99.90;;;;;;4145386;28;20096;-79
2021/05/01 02:43:12;;;;;;;43.50;25.65;;;5.10;99.90;;;;;;4135453;28;20420;-79
2021/05/01 02:45:17;;;;;;;40.45;27.75;;;5.10;99.90;;;;;;4146608;28;20046;-78
2021/05/01 02:47:18;;;;;;;45.25;27.80;;;5.10;99.90;;;;;;4162612;28;20037;-78
2021/05/01 02:49:19;;;;;;;42.72;26.58;;;5.00;99.90;;;;;;4146634;28;20121;-79
2021/05/01 02:51:20;;;;;;;49.13;28.75;;;5.00;99.90;;;;;;4146019;28;20549;-79
2021/05/01 02:53:21;;;;;;;43.03;26.52;;;5.00;99.90;;;;;;4134371;28;20188;-79
2021/05/01 02:55:22;;;;;;;49.42;29.63;;;5.00;99.90;;;;;;4162822;28;20481;-80
2021/05/01 02:57:23;;;;;;;48.45;27.90;;;4.90;99.90;;;;;;4146127;28;20493;-78
2021/05/01 02:59:23;;;;;;;52.25;30.45;;;4.80;99.90;;;;;;4139673;28;20045;-79
2021/05/01 03:01:24;;;;;;;48.67;28.13;;;4.70;99.90;;;;;;4143051;28;20038;-79
2021/05/01 03:03:25;;;;;;;51.88;28.38;;;4.70;99.90;;;;;;4146261;28;20037;-79
2021/05/01 03:05:26;;;;;;;47.42;28.63;;;4.70;99.90;;;;;;4162567;28;20033;-79
2021/05/01 03:07:27;;;;;;;42.97;26.40;;;4.70;99.90;;;;;;4130062;28;20034;-79
2021/05/01 03:09:27;;;;;;;49.38;28.80;;;4.70;99.90;;;;;;4129772;28;20405;-79
2021/05/01 03:11:29;;;;;;;50.65;31.92;;;4.60;99.90;;;;;;4162340;28;20099;-79
2021/05/01 03:13:30;;;;;;;49.42;29.42;;;4.60;99.90;;;;;;4161830;28;20428;-79
2021/05/01 03:15:31;;;;;;;48.00;29.85;;;4.60;99.90;;;;;;4141254;28;20034;-80
2021/05/01 03:17:32;;;;;;;61.70;30.88;;;4.60;99.90;;;;;;4137141;28;20058;-80
2021/05/01 03:19:34;;;;;;;58.13;32.05;;;4.50;99.90;;;;;;4129776;28;20113;-79
2021/05/01 03:21:34;;;;;;;53.00;29.77;;;4.40;99.90;;;;;;4145744;28;20377;-79
2021/05/01 03:23:35;;;;;;;50.05;28.63;;;4.40;99.90;;;;;;4144538;28;20048;-79
2021/05/01 03:25:36;;;;;;;47.03;26.70;;;4.50;99.90;;;;;;4145948;28;20394;-79
2021/05/01 03:27:38;;;;;;;50.38;30.60;;;4.50;99.90;;;;;;4153801;28;20041;-79
2021/05/01 03:29:39;;;;;;;54.63;32.13;;;4.40;99.90;;;;;;4145727;28;20033;-80
2021/05/01 03:31:40;;;;;;;58.10;32.42;;;4.40;99.90;;;;;;4145259;28;20116;-80
2021/05/01 03:33:41;;;;;;;61.15;34.45;;;4.30;99.90;;;;;;4146852;28;20033;-80
2021/05/01 03:35:42;;;;;;;61.42;35.08;;;4.20;99.90;;;;;;4146948;28;20466;-80
2021/05/01 03:37:43;;;;;;;53.53;33.65;;;4.20;99.90;;;;;;4145812;28;20045;-80
2021/05/01 03:39:44;;;;;;;58.75;33.88;;;4.10;99.90;;;;;;4162156;28;20113;-79
2021/05/01 03:41:45;;;;;;;63.72;33.60;;;4.10;99.90;;;;;;4145678;28;20034;-79
2021/05/01 03:43:46;;;;;;;67.60;36.35;;;4.10;99.90;;;;;;4145811;28;20473;-79
2021/05/01 03:45:47;;;;;;;73.80;38.33;;;4.10;99.90;;;;;;4145752;28;20144;-79
2021/05/01 03:47:48;;;;;;;65.03;36.60;;;4.20;99.90;;;;;;4143589;28;20057;-79
2021/05/01 03:49:50;;;;;;;65.53;34.55;;;4.30;99.90;;;;;;4132259;28;20030;-79
2021/05/01 03:51:52;;;;;;;64.25;34.55;;;4.20;99.90;;;;;;4146997;28;20080;-81
2021/05/01 03:53:52;;;;;;;64.28;32.92;;;4.20;99.90;;;;;;4152878;28;20462;-79
2021/05/01 03:55:53;;;;;;;62.78;33.67;;;4.20;99.90;;;;;;4141570;28;20058;-79
2021/05/01 03:57:54;;;;;;;60.90;34.80;;;4.10;99.90;;;;;;4147109;28;20030;-79
2021/05/01 03:59:55;;;;;;;56.70;34.83;;;4.10;99.90;;;;;;4145662;28;20062;-79
2021/05/01 04:01:56;;;;;;;65.32;34.92;;;4.00;99.90;;;;;;4145777;28;20433;-79
2021/05/01 04:03:57;;;;;;;62.10;34.17;;;4.00;99.90;;;;;;4145578;28;20030;-79
2021/05/01 04:05:58;;;;;;;72.28;34.95;;;3.90;99.90;;;;;;4145327;28;20045;-79
2021/05/01 04:07:59;;;;;;;68.75;35.20;;;3.90;99.90;;;;;;4145203;28;20053;-79
2021/05/01 04:10:00;;;;;;;61.13;34.35;;;3.90;99.90;;;;;;4129112;28;20456;-80
2021/05/01 04:12:02;;;;;;;74.13;35.78;;;3.90;99.90;;;;;;4145336;28;20029;-80
2021/05/01 04:14:02;;;;;;;67.35;36.55;;;3.90;99.90;;;;;;4161556;28;20046;-79
2021/05/01 04:16:05;;;;;;;69.05;36.25;;;3.80;99.90;;;;;;4145242;28;20068;-80
2021/05/01 04:18:12;;;;;;;66.53;36.47;;;3.80;99.90;;;;;;4145453;28;20092;-79
2021/05/01 04:20:14;;;;;;;68.10;34.97;;;3.70;99.90;;;;;;4146128;28;20061;-79
2021/05/01 04:22:19;;;;;;;69.72;37.22;;;3.70;99.90;;;;;;4141082;28;20030;-79
2021/05/01 04:24:20;;;;;;;70.80;36.97;;;3.70;99.90;;;;;;4178384;28;20057;-79
2021/05/01 04:26:21;;;;;;;73.13;36.33;;;3.60;99.90;;;;;;4146959;28;20037;-79
2021/05/01 04:28:21;;;;;;;71.93;39.00;;;3.60;99.90;;;;;;4145587;28;20473;-80
2021/05/01 04:30:23;;;;;;;73.80;38.00;;;3.60;99.90;;;;;;4145118;28;20038;-79
2021/05/01 04:32:25;;;;;;;73.28;36.75;;;3.60;99.90;;;;;;4145471;28;20041;-80
2021/05/01 04:34:26;;;;;;;71.55;35.70;;;3.60;99.90;;;;;;4146677;28;20113;-79
2021/05/01 04:36:27;;;;;;;84.90;38.58;;;3.60;99.90;;;;;;4145231;28;20504;-80
2021/05/01 04:38:29;;;;;;;69.35;36.45;;;3.60;99.90;;;;;;4153802;28;20038;-80
2021/05/01 04:40:29;;;;;;;71.57;37.30;;;3.60;99.90;;;;;;4150981;28;20046;-80
2021/05/01 04:42:31;;;;;;;70.53;35.78;;;3.70;99.90;;;;;;4142414;28;20117;-81
2021/05/01 04:44:32;;;;;;;74.82;36.55;;;3.70;99.90;;;;;;4148155;28;20044;-79
2021/05/01 04:46:33;;;;;;;73.63;37.05;;;3.80;99.90;;;;;;4148283;28;20033;-79
2021/05/01 04:48:34;;;;;;;78.00;36.00;;;3.90;99.90;;;;;;4148261;28;20410;-79
2021/05/01 04:50:35;;;;;;;64.95;35.63;;;4.00;99.90;;;;;;4171480;28;20041;-79
2021/05/01 04:52:36;;;;;;;61.13;33.88;;;4.00;99.90;;;;;;4160176;28;20033;-80
2021/05/01 04:54:37;;;;;;;72.47;37.40;;;4.10;99.90;;;;;;4131896;28;20090;-79
2021/05/01 04:56:38;;;;;;;75.70;36.05;;;4.10;99.90;;;;;;4144999;28;20061;-79
2021/05/01 04:58:39;;;;;;;75.07;37.90;;;4.20;99.90;;;;;;4137795;28;20579;-80
2021/05/01 05:00:40;;;;;;;74.25;38.22;;;4.20;99.90;;;;;;4147965;28;20049;-79
2021/05/01 05:02:41;;;;;;;78.93;41.60;;;4.20;99.90;;;;;;4148231;28;20460;-79
2021/05/01 05:04:43;;;;;;;76.57;35.75;;;4.20;99.90;;;;;;4151176;28;20045;-78
2021/05/01 05:06:45;;;;;;;69.32;38.78;;;4.20;99.90;;;;;;4147859;28;20651;-79
2021/05/01 05:08:45;;;;;;;83.32;41.10;;;4.30;99.90;;;;;;4147772;28;20052;-79
2021/05/01 05:10:46;;;;;;;71.80;38.22;;;4.30;99.90;;;;;;4149380;28;20072;-79
2021/05/01 05:12:48;;;;;;;78.90;40.95;;;4.30;99.90;;;;;;4147780;28;20512;-78
2021/05/01 05:14:49;;;;;;;83.70;40.83;;;4.30;99.90;;;;;;4163799;28;20052;-79
2021/05/01 05:16:49;;;;;;;75.22;38.88;;;4.40;99.90;;;;;;4147732;28;20029;-79
2021/05/01 05:18:50;;;;;;;83.47;41.60;;;4.40;99.90;;;;;;4149119;28;20026;-79
2021/05/01 05:20:51;;;;;;;78.80;40.35;;;4.40;99.90;;;;;;4149195;28;20061;-79
2021/05/01 05:22:52;;;;;;;73.35;41.38;;;4.40;99.90;;;;;;4147706;28;20088;-79
2021/05/01 05:24:53;;;;;;;79.13;40.97;;;4.50;99.90;;;;;;4139817;28;20039;-79
2021/05/01 05:26:54;;;;;;;75.68;39.97;;;4.60;99.90;;;;;;4141925;28;20045;-79
2021/05/01 05:28:55;;;;;;;80.47;39.70;;;4.60;99.90;;;;;;4144382;28;20038;-80
2021/05/01 05:30:56;;;;;;;75.82;39.97;;;4.60;99.90;;;;;;4147947;28;20168;-79
2021/05/01 05:32:57;;;;;;;75.03;38.80;;;4.70;99.90;;;;;;4146518;28;20026;-79
2021/05/01 05:34:58;;;;;;;67.80;37.50;;;4.80;99.90;;;;;;4146385;28;20208;-79
2021/05/01 05:36:59;;;;;;;71.10;40.53;;;4.80;99.90;;;;;;4146513;28;20154;-79
2021/05/01 05:39:00;;;;;;;68.10;36.40;;;4.90;99.90;;;;;;4146705;28;20069;-79
2021/05/01 05:41:01;;;;;;;68.90;39.28;;;5.00;99.90;;;;;;4136293;28;20452;-79
2021/05/01 05:43:02;;;;;;;65.00;39.10;;;5.00;99.90;;;;;;4125708;28;20452;-79
2021/05/01 05:45:05;;;;;;;68.25;37.65;;;5.00;99.90;;;;;;4145147;28;20140;-79
2021/05/01 05:47:06;;;;;;;67.53;39.00;;;5.00;99.90;;;;;;4146147;28;20128;-79
2021/05/01 05:49:08;;;;;;;65.25;36.63;;;5.10;99.90;;;;;;4149979;28;20033;-79
2021/05/01 05:51:09;;;;;;;65.72;38.20;;;5.10;99.90;;;;;;4149243;28;20033;-79
2021/05/01 05:53:11;;;;;;;64.85;35.78;;;5.20;99.90;;;;;;4174196;28;20041;-79
2021/05/01 05:55:14;;;;;;;59.38;35.40;;;5.20;99.90;;;;;;4146275;28;20046;-79
2021/05/01 05:57:15;;;;;;;62.95;35.15;;;5.30;99.90;;;;;;4152480;28;20033;-79
2021/05/01 05:59:15;;;;;;;61.25;34.67;;;5.30;99.90;;;;;;4146434;28;20187;-79
2021/05/01 06:01:16;;;;;;;60.75;35.95;;;5.40;99.90;;;;;;4165351;28;20045;-78
2021/05/01 06:03:19;;;;;;;59.45;33.72;;;5.40;99.90;;;;;;4147037;28;20037;-79
2021/05/01 06:05:26;;;;;;;52.38;33.53;;;5.40;99.90;;;;;;4157713;28;20447;-78
2021/05/01 06:07:33;;;;;;;51.80;32.13;;;5.50;99.90;;;;;;4163177;28;20029;-80
2021/05/01 06:09:38;;;;;;;52.20;32.67;;;5.60;99.90;;;;;;4162905;28;20091;-78
2021/05/01 06:11:41;;;;;;;51.35;30.58;;;5.60;99.90;;;;;;4155790;28;20029;-78
2021/05/01 06:13:42;;;;;;;47.72;32.17;;;5.70;99.90;;;;;;4145171;28;20029;-79
2021/05/01 06:15:45;;;;;;;51.80;30.48;;;5.70;99.90;;;;;;4144394;28;20489;-80
2021/05/01 06:17:52;;;;;;;47.47;29.70;;;5.80;99.90;;;;;;4141653;28;20069;-78
2021/05/01 06:19:57;;;;;;;37.92;26.92;;;5.90;99.90;;;;;;4130055;28;20036;-80
2021/05/01 06:21:59;;;;;;;45.72;28.08;;;5.90;99.90;;;;;;4135102;28;20038;-78
2021/05/01 06:24:01;;;;;;;40.45;26.33;;;6.00;99.90;;;;;;4169503;28;20464;-79
2021/05/01 06:26:02;;;;;;;53.33;27.08;;;6.10;99.90;;;;;;4145822;28;20068;-79
2021/05/01 06:28:05;;;;;;;36.88;25.92;;;6.20;99.90;;;;;;4146231;28;20077;-79
2021/05/01 06:30:12;;;;;;;35.03;24.63;;;6.20;99.90;;;;;;4146603;28;20385;-79
2021/05/01 06:32:17;;;;;;;32.95;23.92;;;6.30;99.90;;;;;;4146921;28;20057;-78
2021/05/01 06:34:17;;;;;;;35.22;24.60;;;6.40;99.90;;;;;;4146880;28;20065;-78
2021/05/01 06:36:24;;;;;;;35.55;21.98;;;6.50;99.90;;;;;;4144284;28;20035;-79
2021/05/01 06:38:28;;;;;;;34.50;22.08;;;6.60;99.90;;;;;;4146526;28;20038;-79
2021/05/01 06:40:36;;;;;;;32.97;22.40;;;6.70;99.90;;;;;;4172218;28;20045;-79
2021/05/01 06:43:13;;;;;;;29.63;21.10;;;6.70;99.90;;;;;;4146595;28;20045;-80
2021/05/01 06:45:16;;;;;;;27.15;20.80;;;6.80;99.90;;;;;;4143678;28;20113;-79
2021/05/01 06:47:25;;;;;;;32.72;20.77;;;6.90;99.90;;;;;;4140200;28;20033;-78
2021/05/01 06:49:34;;;;;;;24.67;19.65;;;6.90;99.90;;;;;;4146962;28;20049;-79
2021/05/01 06:51:39;;;;;;;26.90;19.92;;;7.00;99.90;;;;;;4144123;28;20035;-79
2021/05/01 06:53:41;;;;;;;27.88;18.83;;;7.20;99.90;;;;;;4136988;28;20036;-79
2021/05/01 06:55:42;;;;;;;26.25;19.92;;;7.40;99.90;;;;;;4162582;28;20037;-71
2021/05/01 06:57:45;;;;;;;25.35;18.60;;;7.40;99.90;;;;;;4146301;28;20091;-71
2021/05/01 06:59:46;;;;;;;;;;;7.40;99.90;;;;;;4162351;28;20033;-72
2021/05/01 07:01:48;;;;;;;19.90;14.13;;;7.40;99.90;;;;;;4146079;28;20335;-72
2021/05/01 07:03:49;;;;;;;18.92;12.98;;;7.50;99.90;;;;;;4146325;28;20088;-71
2021/05/01 07:05:50;;;;;;;21.33;13.70;;;7.60;99.90;;;;;;4146030;28;20038;-72
2021/05/01 07:07:51;;;;;;;17.67;13.38;;;7.80;99.90;;;;;;4158248;28;20496;-72
2021/05/01 07:09:53;;;;;;;24.27;13.75;;;7.90;99.90;;;;;;4147335;28;20083;-71
2021/05/01 07:11:53;;;;;;;18.27;13.77;;;8.00;99.90;;;;;;4147807;28;20097;-71
2021/05/01 07:13:54;;;;;;;17.48;12.00;;;8.00;99.90;;;;;;4160618;28;20034;-72
2021/05/01 07:16:01;;;;;;;17.48;12.70;;;8.10;99.90;;;;;;4145969;28;20034;-71
2021/05/01 07:18:02;;;;;;;20.02;12.90;;;8.20;99.90;;;;;;4145808;28;20121;-72
2021/05/01 07:20:11;;;;;;;23.05;13.50;;;8.20;99.90;;;;;;4146478;28;20481;-72
2021/05/01 07:22:13;;;;;;;18.92;11.07;;;8.30;99.90;;;;;;4157419;28;20026;-71
2021/05/01 07:24:14;;;;;;;18.00;10.85;;;8.40;99.90;;;;;;4132005;28;20034;-71
2021/05/01 07:26:22;;;;;;;15.55;10.70;;;8.50;99.90;;;;;;4145842;28;20026;-71
2021/05/01 07:28:26;;;;;;;20.73;10.88;;;8.50;99.90;;;;;;4144534;28;20022;-72
2021/05/01 07:30:39;;;;;;;16.67;11.10;;;8.70;99.90;;;;;;4144660;28;20041;-72
2021/05/01 07:32:43;;;;;;;15.52;11.15;;;9.10;99.90;;;;;;4144814;28;20053;-72
2021/05/01 07:34:50;;;;;;;13.35;7.90;;;9.40;99.90;;;;;;4144777;28;20033;-72
2021/05/01 07:36:53;;;;;;;12.57;7.85;;;9.50;99.90;;;;;;4144402;28;20030;-71
2021/05/01 07:38:58;;;;;;;17.23;6.72;;;9.70;99.90;;;;;;4144591;28;20024;-71
2021/05/01 07:41:03;;;;;;;14.45;9.48;;;9.80;99.90;;;;;;4144879;28;20456;-71
2021/05/01 07:43:06;;;;;;;11.45;8.02;;;9.80;99.90;;;;;;4145795;28;20489;-71
2021/05/01 07:45:09;;;;;;;12.27;9.18;;;9.50;99.90;;;;;;4138135;28;20031;-71
2021/05/01 07:47:10;;;;;;;11.13;8.93;;;9.60;99.90;;;;;;4177272;28;20125;-71
2021/05/01 07:49:11;;;;;;;15.85;8.50;;;9.70;99.90;;;;;;4145589;28;20054;-71
2021/05/01 07:51:12;;;;;;;13.95;8.70;;;10.00;99.90;;;;;;4146894;28;20113;-72
2021/05/01 07:53:13;;;;;;;12.25;8.77;;;10.30;99.90;;;;;;4146494;28;20038;-73
2021/05/01 07:55:14;;;;;;;14.88;9.55;;;10.30;99.90;;;;;;4146522;28;20053;-72
2021/05/01 07:57:16;;;;;;;14.38;9.55;;;10.30;99.90;;;;;;4146657;28;20045;-72
2021/05/01 07:59:17;;;;;;;12.40;9.68;;;10.30;99.90;;;;;;4146846;28;20090;-72
2021/05/01 08:01:17;;;;;;;17.20;11.00;;;10.50;99.90;;;;;;4156055;28;20457;-72
2021/05/01 08:03:21;;;;;;;11.70;8.93;;;10.90;99.90;;;;;;4133915;28;20575;-72
2021/05/01 08:05:22;;;;;;;14.10;9.80;;;11.10;99.90;;;;;;4144923;28;20033;-72
2021/05/01 08:07:23;;;;;;;16.23;10.23;;;10.90;99.90;;;;;;4139476;28;20438;-72
2021/05/01 08:09:24;;;;;;;12.65;9.40;;;10.90;99.90;;;;;;4139457;28;20053;-74
2021/05/01 08:11:25;;;;;;;14.57;9.93;;;10.70;99.90;;;;;;4138104;28;20101;-72
2021/05/01 08:13:26;;;;;;;10.15;9.13;;;10.50;99.90;;;;;;4165660;28;20042;-72
2021/05/01 08:15:30;;;;;;;13.60;8.70;;;10.20;99.90;;;;;;4145260;28;20041;-72
2021/05/01 08:17:31;;;;;;;13.80;8.77;;;10.20;99.90;;;;;;4147182;28;20043;-73
2021/05/01 08:19:32;;;;;;;13.15;8.50;;;10.50;99.90;;;;;;4146674;28;20087;-71
2021/05/01 08:21:35;;;;;;;11.45;8.23;;;10.90;99.90;;;;;;4148175;28;20068;-72
2021/05/01 08:23:36;;;;;;;10.68;8.05;;;11.40;99.90;;;;;;4148016;28;20053;-71
2021/05/01 08:25:37;;;;;;;16.80;8.68;;;11.50;99.90;;;;;;4148200;28;20042;-71
2021/05/01 08:27:39;;;;;;;9.57;7.35;;;11.60;99.90;;;;;;4152228;28;20100;-72
2021/05/01 08:29:40;;;;;;;18.15;7.90;;;11.60;99.90;;;;;;4147797;28;20034;-72
2021/05/01 08:31:41;;;;;;;10.00;7.07;;;11.30;99.90;;;;;;4147940;28;20084;-72
2021/05/01 08:33:41;;;;;;;11.80;6.95;;;11.10;99.90;;;;;;4154153;28;20034;-72
2021/05/01 08:35:42;;;;;;;11.95;7.30;;;11.10;99.90;;;;;;4133553;28;20042;-72
2021/05/01 08:37:44;;;;;;;9.52;6.72;;;11.30;99.90;;;;;;4148400;28;20138;-71
2021/05/01 08:39:45;;;;;;;14.10;7.22;;;11.60;99.90;;;;;;4164464;28;20087;-72
2021/05/01 08:41:46;;;;;;;15.60;7.80;;;11.30;99.90;;;;;;4148069;28;20030;-72
2021/05/01 08:43:46;;;;;;;12.05;6.88;;;11.10;99.90;;;;;;4148370;28;20488;-72
2021/05/01 08:45:49;;;;;;;9.90;5.53;;;11.10;99.90;;;;;;4164535;28;20131;-72
2021/05/01 08:47:50;;;;;;;10.95;6.85;;;11.10;99.90;;;;;;4148202;28;20033;-72
2021/05/01 08:49:50;;;;;;;10.80;7.38;;;11.00;99.90;;;;;;4147589;28;20543;-72
2021/05/01 08:51:51;;;;;;;9.95;6.22;;;11.10;99.90;;;;;;4145175;28;20056;-72
2021/05/01 08:53:53;;;;;;;9.32;5.75;;;;;;;;;;4140413;28;20651;-72
2021/05/01 08:55:55;;;;;;;8.43;6.55;;;11.80;99.90;;;;;;4149476;28;20145;-72
2021/05/01 08:57:56;;;;;;;10.82;6.32;;;12.20;99.90;;;;;;4164404;28;20443;-78
2021/05/01 08:59:57;;;;;;;8.75;5.28;;;12.60;99.90;;;;;;4145149;28;20103;-79
2021/05/01 09:01:58;;;;;;;8.05;6.25;;;12.90;99.90;;;;;;4143831;28;20810;-78
2021/05/01 09:04:01;;;;;;;6.53;5.28;;;13.00;99.90;;;;;;4146904;28;20030;-78
2021/05/01 09:06:06;;;;;;;9.13;5.65;;;12.90;99.90;;;;;;4147948;28;20037;-78
2021/05/01 09:08:11;;;;;;;10.02;5.60;;;12.80;99.90;;;;;;4146269;28;20117;-79
2021/05/01 09:10:13;;;;;;;9.18;5.65;;;12.70;99.90;;;;;;4143591;28;20081;-79
2021/05/01 09:12:14;;;;;;;8.27;5.80;;;13.00;99.90;;;;;;4145823;28;20041;-79
2021/05/01 09:14:20;;;;;;;11.05;6.07;;;13.30;99.90;;;;;;4162644;28;20117;-79
2021/05/01 09:16:21;;;;;;;10.10;5.95;;;13.70;99.90;;;;;;4148641;28;20038;-78
2021/05/01 09:18:22;;;;;;;7.43;6.43;;;;;;;;;;4145469;28;20560;-79
2021/05/01 09:20:24;;;;;;;6.97;5.13;;;13.50;99.90;;;;;;4129331;28;20452;-78
2021/05/01 09:22:24;;;;;;;6.20;5.57;;;13.70;99.90;;;;;;4146704;28;20029;-79
2021/05/01 09:24:27;;;;;;;9.27;6.15;;;13.50;99.90;;;;;;4129992;28;20505;-78
2021/05/01 09:26:40;;;;;;;6.90;6.20;;;13.30;99.90;;;;;;4174998;28;20796;-78
2021/05/01 09:28:49;;;;;;;;;;;13.00;99.90;;;;;;4162232;28;20087;-78
2021/05/01 09:31:08;;;;;;;10.75;6.20;;;12.60;99.90;;;;;;4165679;28;20001;-73
2021/05/01 09:33:23;;;;;;;16.88;6.85;;;12.50;99.90;;;;;;4151973;28;20183;-72
2021/05/01 09:35:25;;;;;;;10.57;6.15;;;12.20;99.90;;;;;;4134460;28;20057;-71
2021/05/01 09:37:29;;;;;;;10.38;6.45;;;12.10;99.90;;;;;;4144806;28;20454;-72
2021/05/01 09:39:31;;;;;;;11.60;7.30;;;11.80;99.90;;;;;;4146183;28;20145;-71
2021/05/01 09:41:44;;;;;;;10.85;6.95;;;11.40;99.90;;;;;;4146278;28;20041;-72
2021/05/01 09:44:02;;;;;;;7.60;6.18;;;11.20;99.90;;;;;;4147803;28;20129;-71
2021/05/01 09:46:15;;;;;;;9.68;6.72;;;10.90;99.90;;;;;;4158745;28;20423;-72
2021/05/01 09:48:19;;;;;;;7.25;5.93;;;10.80;99.90;;;;;;4132868;28;20104;-73
2021/05/01 09:50:23;;;;;;;11.80;6.05;;;10.50;99.90;;;;;;4138960;28;20433;-73
2021/05/01 09:52:24;;;;;;;9.93;6.88;;;10.20;99.90;;;;;;4154525;28;20034;-72
2021/05/01 09:54:35;;;;;;;6.53;5.50;;;10.10;99.90;;;;;;4152101;28;20611;-72
2021/05/01 09:56:38;;;;;;;10.75;5.63;;;10.10;99.90;;;;;;4149589;28;20115;-72
2021/05/01 09:58:52;;;;;;;8.40;6.45;;;10.10;99.90;;;;;;4146395;28;20034;-73
2021/05/01 10:01:13;;;;;;;;;;;10.40;99.90;;;;;;4156828;28;20045;-72
2021/05/01 10:03:28;;;;;;;7.22;4.97;;;10.70;99.90;;;;;;4146070;28;19913;-71
2021/05/01 10:05:30;;;;;;;7.90;4.75;;;11.10;99.90;;;;;;4144307;28;20032;-72
2021/05/01 10:07:33;;;;;;;6.57;4.35;;;11.40;99.90;;;;;;4159422;28;20037;-73
2021/05/01 10:09:41;;;;;;;8.80;4.93;;;11.70;99.90;;;;;;4126171;28;563956;-74
2021/05/01 10:11:42;;;;;;;5.72;4.28;;;11.90;99.90;;;;;;4145523;28;20042;-72
2021/05/01 10:13:51;;;;;;;8.82;4.68;;;11.90;99.90;;;;;;4149757;28;20420;-72
2021/05/01 10:15:52;;;;;;;7.72;4.75;;;12.10;99.90;;;;;;4147018;28;20046;-71
2021/05/01 10:17:54;;;;;;;7.43;4.00;;;12.40;99.90;;;;;;4145822;28;20034;-72
2021/05/01 10:20:00;;;;;;;7.10;4.20;;;12.50;99.90;;;;;;4145964;28;20105;-72
2021/05/01 10:22:33;;;;;;;9.05;4.78;;;12.70;99.90;;;;;;4152254;28;20060;-73
2021/05/01 10:24:42;;;;;;;6.82;4.85;;;13.10;99.90;;;;;;4137318;28;20120;-72
2021/05/01 10:26:49;;;;;;;5.40;3.85;;;13.20;99.90;;;;;;4148423;28;20061;-71
2021/05/01 10:28:54;;;;;;;5.80;4.63;;;13.70;99.90;;;;;;4145726;28;20429;-72
2021/05/01 10:30:58;;;;;;;5.75;3.38;;;14.70;99.90;;;;;;4136621;28;20034;-72
2021/05/01 10:33:23;;;;;;;6.55;3.85;;;14.80;99.90;;;;;;4146412;28;20038;-72